createdAt,value
2019-01-19T00:00:10.715Z,1.96
2019-01-19T00:02:45.297Z,2.22
2019-01-19T00:06:04.190Z,2.23
2019-01-19T00:09:00.175Z,2.29
2019-01-19T00:12:04.224Z,2.55
2019-01-19T00:14:44.656Z,2.59
2019-01-19T00:17:32.753Z,2.47
2019-01-19T00:20:37.962Z,2.39
2019-01-19T00:23:48.780Z,2.54
2019-01-19T00:26:52.409Z,2.69
2019-01-19T00:29:45.881Z,2.79
2019-01-19T00:32:53.444Z,2.73
2019-01-19T00:35:47.254Z,2.70
2019-01-19T00:38:29.174Z,2.92
2019-01-19T00:41:38.756Z,3.13
2019-01-19T00:45:09.041Z,3.16
2019-01-19T00:48:15.834Z,3.17
2019-01-19T00:51:18.241Z,3.15
2019-01-19T00:53:54.438Z,2.96
2019-01-19T00:56:58.062Z,2.77
2019-01-19T00:59:29.964Z,2.78
2019-01-19T01:02:47.629Z,2.46
2019-01-19T01:05:55.399Z,2.26
2019-01-19T01:08:49.865Z,2.15
2019-01-19T01:11:47.001Z,1.93
2019-01-19T01:14:52.498Z,1.81
2019-01-19T01:17:49.666Z,1.69
2019-01-19T01:20:48.557Z,1.47
2019-01-19T01:24:12.921Z,1.35
2019-01-19T01:27:23.521Z,1.16
2019-01-19T01:30:53.422Z,0.78
2019-01-19T01:34:17.848Z,0.81
2019-01-19T01:37:26.536Z,0.86
2019-01-19T01:40:41.701Z,0.92
2019-01-19T01:43:41.074Z,0.99
2019-01-19T01:46:37.312Z,1.03
2019-01-19T01:49:22.447Z,0.99
2019-01-19T01:52:17.806Z,0.87
2019-01-19T01:55:17.417Z,0.93
2019-01-19T01:58:12.863Z,1.41
2019-01-19T02:01:21.676Z,1.53
2019-01-19T02:04:10.969Z,1.80
2019-01-19T02:07:05.203Z,1.47
2019-01-19T02:10:02.531Z,1.65
2019-01-19T02:12:49.028Z,1.90
2019-01-19T02:15:51.146Z,2.17
2019-01-19T02:18:59.210Z,1.93
2019-01-19T02:22:22.635Z,1.81
2019-01-19T02:25:37.091Z,1.57
2019-01-19T02:28:13.805Z,1.55
2019-01-19T02:31:20.449Z,1.50
2019-01-19T02:34:35.622Z,1.75
2019-01-19T02:37:30.712Z,1.74
2019-01-19T02:40:15.841Z,1.60
2019-01-19T02:43:07.742Z,1.66
2019-01-19T02:45:55.600Z,1.71
2019-01-19T02:49:00.976Z,1.79
2019-01-19T02:52:40.768Z,1.65
2019-01-19T02:55:38.101Z,1.93
2019-01-19T02:58:35.897Z,1.62
2019-01-19T03:01:40.741Z,1.78
2019-01-19T03:04:49.912Z,1.78
2019-01-19T03:08:14.531Z,1.71
2019-01-19T03:11:31.787Z,1.88
2019-01-19T03:14:30.458Z,2.19
2019-01-19T03:17:47.504Z,2.30
2019-01-19T03:20:59.555Z,2.27
2019-01-19T03:24:16.509Z,1.82
2019-01-19T03:27:02.185Z,1.83
2019-01-19T03:29:41.871Z,1.85
2019-01-19T03:32:29.976Z,1.78
2019-01-19T03:35:20.776Z,1.72
2019-01-19T03:38:27.111Z,1.73
2019-01-19T03:41:13.400Z,1.83
2019-01-19T03:44:28.550Z,2.14
2019-01-19T03:47:25.070Z,2.05
2019-01-19T03:50:46.114Z,1.91
2019-01-19T03:53:28.023Z,1.96
2019-01-19T03:56:21.335Z,1.82
2019-01-19T03:59:21.861Z,1.81
2019-01-19T04:02:16.197Z,1.83
2019-01-19T04:05:09.308Z,2.01
2019-01-19T04:08:09.570Z,2.08
2019-01-19T04:10:45.113Z,1.99
2019-01-19T04:13:53.552Z,1.79
2019-01-19T04:17:18.183Z,1.76
2019-01-19T04:20:15.613Z,1.73
2019-01-19T04:22:49.190Z,1.69
2019-01-19T04:25:50.185Z,1.57
2019-01-19T04:28:19.665Z,1.56
2019-01-19T04:30:49.753Z,1.48
2019-01-19T04:33:17.421Z,1.40
2019-01-19T04:35:45.274Z,1.25
2019-01-19T04:38:12.998Z,1.19
2019-01-19T04:40:40.561Z,1.19
2019-01-19T04:43:09.098Z,1.01
2019-01-19T04:45:36.620Z,0.90
2019-01-19T04:48:04.529Z,0.66
2019-01-19T04:50:32.067Z,0.38
2019-01-19T04:52:59.562Z,0.22
2019-01-19T04:55:27.171Z,0.07
2019-01-19T04:57:54.828Z,-0.10
2019-01-19T05:00:23.204Z,0.13
2019-01-19T05:02:50.790Z,0.22
2019-01-19T05:05:18.782Z,0.07
2019-01-19T05:07:46.144Z,-0.02
2019-01-19T05:10:14.153Z,-0.08
2019-01-19T05:12:41.803Z,-0.06
2019-01-19T05:15:12.452Z,-0.05
2019-01-19T05:17:40.157Z,-0.07
2019-01-19T05:20:09.010Z,0.13
2019-01-19T05:22:36.575Z,0.53
2019-01-19T05:25:10.128Z,0.64
2019-01-19T05:27:37.838Z,0.53
2019-01-19T05:30:11.665Z,0.59
2019-01-19T05:32:39.197Z,0.50
2019-01-19T05:35:07.375Z,0.66
2019-01-19T05:37:35.163Z,0.75
2019-01-19T05:40:03.783Z,0.80
2019-01-19T05:42:31.449Z,0.64
2019-01-19T05:44:58.954Z,0.60
2019-01-19T05:47:26.379Z,0.65
2019-01-19T05:49:53.962Z,0.76
2019-01-19T05:52:21.491Z,0.95
2019-01-19T05:54:50.073Z,1.05
2019-01-19T05:57:17.589Z,1.37
2019-01-19T05:59:45.233Z,1.36
2019-01-19T06:02:12.952Z,1.26
2019-01-19T06:04:40.500Z,1.23
2019-01-19T06:07:08.040Z,1.47
2019-01-19T06:09:35.577Z,1.33
2019-01-19T06:12:03.575Z,1.29
2019-01-19T06:14:31.254Z,1.14
2019-01-19T06:16:58.839Z,1.02
2019-01-19T06:19:26.879Z,1.12
2019-01-19T06:21:59.406Z,1.20
2019-01-19T06:24:27.241Z,1.45
2019-01-19T06:26:54.992Z,1.39
2019-01-19T06:29:22.716Z,1.31
2019-01-19T06:31:50.240Z,1.23
2019-01-19T06:34:17.707Z,1.12
2019-01-19T06:36:45.153Z,1.25
2019-01-19T06:39:12.699Z,1.38
2019-01-19T06:41:40.292Z,1.39
2019-01-19T06:44:07.796Z,1.64
2019-01-19T06:46:35.475Z,1.94
2019-01-19T06:49:02.998Z,1.92
2019-01-19T06:51:30.659Z,1.90
2019-01-19T06:54:01.767Z,1.74
2019-01-19T06:56:28.448Z,1.85
2019-01-19T06:58:56.214Z,1.90
2019-01-19T07:01:23.748Z,2.07
2019-01-19T07:03:51.583Z,2.04
2019-01-19T07:06:19.379Z,2.06
2019-01-19T07:08:47.698Z,2.30
2019-01-19T07:11:15.192Z,2.37
2019-01-19T07:13:42.806Z,2.45
2019-01-19T07:16:10.310Z,2.22
2019-01-19T07:18:37.796Z,2.02
2019-01-19T07:21:05.267Z,2.07
2019-01-19T07:23:32.928Z,2.06
2019-01-19T07:26:00.519Z,2.39
2019-01-19T07:28:28.093Z,2.45
2019-01-19T07:30:55.481Z,2.66
2019-01-19T07:33:23.062Z,2.55
2019-01-19T07:35:50.982Z,2.37
2019-01-19T07:38:18.622Z,2.15
2019-01-19T07:40:46.137Z,2.19
2019-01-19T07:43:15.255Z,2.37
2019-01-19T07:45:42.770Z,2.44
2019-01-19T07:48:10.985Z,2.57
2019-01-19T07:50:38.672Z,2.67
2019-01-19T07:53:06.381Z,2.80
2019-01-19T07:55:34.167Z,2.75
2019-01-19T07:58:01.702Z,2.53
2019-01-19T08:00:30.721Z,2.12
2019-01-19T08:02:58.384Z,2.31
2019-01-19T08:05:26.255Z,2.79
2019-01-19T08:07:53.808Z,2.64
2019-01-19T08:10:21.537Z,2.63
2019-01-19T08:12:49.248Z,2.52
2019-01-19T08:15:19.161Z,2.47
2019-01-19T08:17:46.776Z,2.59
2019-01-19T08:20:14.850Z,2.84
2019-01-19T08:22:42.625Z,3.00
2019-01-19T08:25:10.470Z,3.13
2019-01-19T08:27:38.177Z,3.35
2019-01-19T08:30:12.262Z,3.47
2019-01-19T08:32:39.897Z,3.46
2019-01-19T08:35:07.903Z,2.95
2019-01-19T08:37:35.577Z,2.65
2019-01-19T08:40:03.538Z,2.74
2019-01-19T08:42:31.562Z,2.58
2019-01-19T08:45:00.227Z,2.97
2019-01-19T08:47:27.749Z,3.01
2019-01-19T08:49:55.361Z,3.28
2019-01-19T08:52:23.100Z,3.44
2019-01-19T08:54:50.606Z,3.73
2019-01-19T08:57:18.175Z,3.88
2019-01-19T08:59:45.891Z,4.13
2019-01-19T09:02:13.434Z,4.15
2019-01-19T09:04:41.097Z,4.38
2019-01-19T09:07:08.686Z,4.63
2019-01-19T09:09:36.338Z,4.69
2019-01-19T09:12:03.980Z,4.76
2019-01-19T09:14:31.467Z,4.83
2019-01-19T09:16:58.932Z,5.00
2019-01-19T09:19:26.908Z,5.14
2019-01-19T09:21:54.501Z,5.43
2019-01-19T09:24:25.540Z,5.39
2019-01-19T09:26:53.453Z,5.51
2019-01-19T09:29:20.988Z,5.66
2019-01-19T09:31:48.516Z,5.54
2019-01-19T09:34:16.450Z,5.54
2019-01-19T09:36:44.219Z,5.42
2019-01-19T09:39:12.289Z,5.70
2019-01-19T09:41:39.870Z,5.81
2019-01-19T09:44:07.648Z,5.70
2019-01-19T09:46:35.056Z,5.94
2019-01-19T09:49:02.882Z,5.91
2019-01-19T09:51:30.353Z,5.56
2019-01-19T09:53:57.943Z,5.27
2019-01-19T09:56:25.566Z,4.89
2019-01-19T09:58:53.118Z,5.09
2019-01-19T10:01:20.673Z,5.34
2019-01-19T10:03:48.260Z,5.38
2019-01-19T10:06:15.984Z,5.20
2019-01-19T10:08:43.756Z,5.35
2019-01-19T10:11:12.059Z,5.47
2019-01-19T10:13:39.577Z,5.77
2019-01-19T10:16:07.223Z,5.90
2019-01-19T10:18:34.865Z,5.99
2019-01-19T10:21:02.399Z,5.81
2019-01-19T10:23:37.544Z,5.69
2019-01-19T10:26:05.102Z,5.56
2019-01-19T10:28:32.513Z,5.55
2019-01-19T10:31:00.120Z,5.52
2019-01-19T10:33:27.833Z,5.62
2019-01-19T10:35:55.394Z,5.73
2019-01-19T10:38:22.992Z,5.50
2019-01-19T10:40:50.685Z,5.40
2019-01-19T10:43:18.322Z,5.37
2019-01-19T10:45:45.798Z,5.28
2019-01-19T10:48:13.374Z,5.29
2019-01-19T10:50:41.000Z,5.56
2019-01-19T10:53:08.446Z,5.77
2019-01-19T10:55:36.098Z,5.94
2019-01-19T10:58:04.163Z,5.80
2019-01-19T11:00:31.751Z,5.79
2019-01-19T11:02:59.595Z,5.91
2019-01-19T11:05:28.081Z,5.85
2019-01-19T11:08:03.207Z,5.74
2019-01-19T11:10:28.113Z,5.79
2019-01-19T11:12:55.982Z,5.75
2019-01-19T11:15:23.629Z,5.80
2019-01-19T11:17:51.444Z,5.72
2019-01-19T11:20:21.087Z,5.97
2019-01-19T11:22:48.662Z,6.19
2019-01-19T11:25:16.230Z,6.29
2019-01-19T11:27:43.686Z,6.37
2019-01-19T11:30:17.787Z,6.16
2019-01-19T11:32:45.361Z,6.03
2019-01-19T11:35:13.450Z,5.80
2019-01-19T11:37:41.120Z,5.69
2019-01-19T11:40:14.601Z,5.84
2019-01-19T11:42:42.306Z,5.73
2019-01-19T11:45:13.146Z,5.55
2019-01-19T11:47:40.650Z,5.45
2019-01-19T11:50:08.579Z,5.40
2019-01-19T11:52:36.224Z,5.57
2019-01-19T11:55:05.212Z,5.67
2019-01-19T11:57:32.783Z,6.01
2019-01-19T12:00:00.350Z,6.06
2019-01-19T12:02:28.320Z,5.92
2019-01-19T12:04:55.920Z,5.89
2019-01-19T12:07:23.723Z,5.73
2019-01-19T12:09:51.549Z,5.69
2019-01-19T12:12:19.097Z,5.70
2019-01-19T12:14:47.002Z,5.69
2019-01-19T12:17:14.672Z,5.65
2019-01-19T12:19:42.410Z,5.75
2019-01-19T12:22:10.119Z,5.83
2019-01-19T12:24:37.732Z,5.85
2019-01-19T12:27:05.303Z,5.74
2019-01-19T12:29:32.860Z,5.88
2019-01-19T12:32:00.288Z,6.01
2019-01-19T12:34:27.951Z,6.21
2019-01-19T12:36:55.956Z,6.20
2019-01-19T12:39:23.545Z,6.37
2019-01-19T12:41:51.029Z,6.41
2019-01-19T12:44:18.703Z,6.20
2019-01-19T12:46:46.538Z,5.99
2019-01-19T12:49:14.635Z,6.20
2019-01-19T12:51:42.206Z,6.16
2019-01-19T12:54:09.672Z,5.93
2019-01-19T12:56:37.209Z,6.02
2019-01-19T12:59:04.950Z,5.93
2019-01-19T13:01:32.879Z,5.92
2019-01-19T13:04:00.432Z,6.15
2019-01-19T13:06:45.147Z,5.91
2019-01-19T13:09:27.821Z,5.88
2019-01-19T13:12:31.919Z,5.88
2019-01-19T13:15:56.197Z,5.89
2019-01-19T13:18:33.020Z,5.95
2019-01-19T13:21:45.129Z,6.00
2019-01-19T13:24:42.778Z,6.30
2019-01-19T13:27:20.718Z,6.46
2019-01-19T13:30:16.183Z,6.48
2019-01-19T13:33:12.361Z,6.64
2019-01-19T13:36:36.884Z,6.67
2019-01-19T13:39:49.052Z,6.49
2019-01-19T13:42:52.777Z,6.43
2019-01-19T13:45:32.626Z,6.29
2019-01-19T13:48:47.549Z,6.03
2019-01-19T13:51:40.837Z,5.98
2019-01-19T13:54:35.113Z,6.00
2019-01-19T13:57:35.605Z,5.93
2019-01-19T14:01:08.895Z,5.91
2019-01-19T14:03:44.803Z,6.30
2019-01-19T14:06:39.875Z,6.46
2019-01-19T14:09:53.886Z,6.37
2019-01-19T14:12:51.086Z,6.40
2019-01-19T14:15:41.104Z,6.94
2019-01-19T14:19:02.607Z,7.58
2019-01-19T14:21:55.358Z,8.68
2019-01-19T14:24:59.765Z,8.83
2019-01-19T14:28:14.476Z,8.21
2019-01-19T14:31:17.859Z,7.29
2019-01-19T14:34:33.883Z,6.67
2019-01-19T14:37:40.805Z,6.37
2019-01-19T14:40:37.813Z,6.12
2019-01-19T14:43:49.872Z,5.91
2019-01-19T14:46:59.149Z,5.80
2019-01-19T14:50:14.417Z,5.57
2019-01-19T14:53:10.137Z,5.40
2019-01-19T14:56:31.569Z,5.22
2019-01-19T14:59:30.268Z,5.29
2019-01-19T15:02:39.249Z,5.36
2019-01-19T15:05:34.241Z,5.36
2019-01-19T15:08:55.483Z,5.37
2019-01-19T15:11:46.601Z,5.37
2019-01-19T15:14:59.286Z,5.26
2019-01-19T15:18:04.456Z,5.16
2019-01-19T15:21:02.154Z,5.11
2019-01-19T15:23:53.451Z,4.91
2019-01-19T15:27:08.494Z,5.02
2019-01-19T15:29:53.862Z,4.80
2019-01-19T15:33:10.956Z,4.66
2019-01-19T15:36:01.535Z,4.54
2019-01-19T15:39:12.485Z,4.45
2019-01-19T15:42:20.195Z,4.44
2019-01-19T15:45:18.169Z,4.37
2019-01-19T15:48:33.444Z,4.34
2019-01-19T15:51:28.077Z,4.40
2019-01-19T15:54:43.457Z,4.46
2019-01-19T15:57:27.368Z,4.54
2019-01-19T16:00:44.427Z,4.51
2019-01-19T16:03:53.416Z,4.52
2019-01-19T16:06:42.169Z,4.27
2019-01-19T16:09:29.653Z,4.42
2019-01-19T16:12:38.072Z,4.56
2019-01-19T16:15:40.249Z,4.71
2019-01-19T16:18:36.998Z,4.85
2019-01-19T16:21:24.608Z,4.93
2019-01-19T16:24:42.722Z,5.13
2019-01-19T16:27:41.277Z,5.03
2019-01-19T16:30:50.162Z,5.22
2019-01-19T16:33:45.853Z,5.13
2019-01-19T16:36:36.740Z,5.04
2019-01-19T16:39:46.222Z,4.88
2019-01-19T16:42:42.493Z,4.72
2019-01-19T16:46:06.697Z,4.78
2019-01-19T16:49:14.645Z,4.78
2019-01-19T16:52:20.324Z,4.86
2019-01-19T16:55:32.492Z,5.25
2019-01-19T16:58:29.968Z,5.12
2019-01-19T17:01:51.369Z,5.14
2019-01-19T17:04:53.116Z,5.14
2019-01-19T17:07:51.247Z,5.59
2019-01-19T17:10:39.195Z,6.02
2019-01-19T17:13:42.595Z,6.08
2019-01-19T17:16:35.922Z,6.27
2019-01-19T17:19:49.583Z,6.35
2019-01-19T17:23:04.962Z,6.38
2019-01-19T17:26:08.870Z,6.45
2019-01-19T17:28:52.687Z,6.64
2019-01-19T17:32:07.513Z,7.02
2019-01-19T17:34:58.740Z,6.97
2019-01-19T17:37:56.864Z,6.79
2019-01-19T17:41:16.082Z,6.43
2019-01-19T17:44:37.789Z,6.67
2019-01-19T17:47:30.823Z,6.70
2019-01-19T17:50:37.614Z,6.85
2019-01-19T17:53:28.510Z,6.79
2019-01-19T17:56:29.288Z,6.63
2019-01-19T17:59:34.413Z,6.55
2019-01-19T18:02:35.206Z,6.37
2019-01-19T18:05:35.531Z,6.47
2019-01-19T18:08:31.725Z,6.35
2019-01-19T18:11:37.222Z,6.26
2019-01-19T18:14:22.878Z,5.93
2019-01-19T18:17:50.551Z,5.65
2019-01-19T18:20:43.026Z,5.52
2019-01-19T18:23:56.828Z,5.36
2019-01-19T18:26:59.699Z,5.26
2019-01-19T18:30:06.161Z,5.35
2019-01-19T18:33:36.853Z,5.28
2019-01-19T18:36:29.515Z,5.33
2019-01-19T18:39:57.042Z,5.16
2019-01-19T18:43:08.738Z,5.20
2019-01-19T18:46:10.198Z,5.19
2019-01-19T18:49:04.100Z,5.19
2019-01-19T18:52:31.844Z,5.18
2019-01-19T18:55:39.770Z,5.10
2019-01-19T18:59:07.059Z,5.25
2019-01-19T19:02:06.907Z,5.14
2019-01-19T19:05:10.515Z,4.98
2019-01-19T19:08:06.803Z,4.86
2019-01-19T19:11:17.651Z,4.73
2019-01-19T19:14:18.750Z,4.78
2019-01-19T19:17:19.243Z,4.75
2019-01-19T19:20:15.680Z,4.65
2019-01-19T19:23:22.095Z,4.92
2019-01-19T19:26:24.821Z,4.96
2019-01-19T19:29:30.061Z,5.02
2019-01-19T19:32:37.990Z,4.96
2019-01-19T19:36:08.420Z,4.88
2019-01-19T19:39:16.783Z,4.98
2019-01-19T19:42:19.527Z,4.86
2019-01-19T19:45:09.732Z,4.84
2019-01-19T19:48:23.898Z,4.99
2019-01-19T19:51:30.345Z,4.94
2019-01-19T19:53:58.214Z,5.01
2019-01-19T19:56:24.482Z,5.13
2019-01-19T19:58:52.006Z,5.21
2019-01-19T20:01:19.550Z,5.15
2019-01-19T20:03:47.288Z,5.02
2019-01-19T20:06:14.929Z,5.07
2019-01-19T20:08:42.401Z,4.98
2019-01-19T20:11:09.952Z,5.00
2019-01-19T20:13:37.716Z,4.86
2019-01-19T20:16:05.340Z,4.75
2019-01-19T20:18:33.072Z,4.71
2019-01-19T20:21:00.577Z,4.72
2019-01-19T20:23:28.847Z,4.50
2019-01-19T20:25:56.737Z,4.57
2019-01-19T20:28:24.194Z,4.54
2019-01-19T20:30:51.845Z,4.61
2019-01-19T20:33:19.273Z,4.72
2019-01-19T20:35:46.914Z,4.66
2019-01-19T20:38:14.504Z,4.63
2019-01-19T20:40:42.227Z,4.58
2019-01-19T20:43:09.732Z,4.63
2019-01-19T20:45:37.240Z,4.69
2019-01-19T20:48:05.113Z,4.75
2019-01-19T20:50:32.693Z,4.82
2019-01-19T20:53:00.288Z,4.80
2019-01-19T20:55:27.910Z,4.80
2019-01-19T20:57:55.412Z,4.68
2019-01-19T21:00:23.135Z,4.57
2019-01-19T21:02:50.656Z,4.58
2019-01-19T21:05:18.151Z,4.70
2019-01-19T21:07:45.619Z,4.98
2019-01-19T21:10:13.299Z,4.90
2019-01-19T21:12:40.902Z,4.96
2019-01-19T21:15:10.122Z,4.95
2019-01-19T21:17:37.581Z,5.01
2019-01-19T21:20:07.290Z,5.13
2019-01-19T21:22:34.858Z,5.23
2019-01-19T21:25:03.159Z,5.14
2019-01-19T21:27:30.656Z,5.26
2019-01-19T21:29:58.238Z,5.28
2019-01-19T21:32:25.725Z,5.25
2019-01-19T21:34:53.241Z,5.20
2019-01-19T21:37:21.028Z,5.27
2019-01-19T21:39:48.755Z,5.12
2019-01-19T21:42:16.353Z,5.15
2019-01-19T21:44:43.899Z,5.27
2019-01-19T21:47:12.072Z,5.12
2019-01-19T21:49:39.937Z,5.17
2019-01-19T21:52:07.606Z,5.28
2019-01-19T21:54:35.461Z,5.24
2019-01-19T21:57:03.247Z,5.42
2019-01-19T21:59:31.087Z,5.42
2019-01-19T22:01:59.253Z,5.33
2019-01-19T22:04:26.936Z,5.13
2019-01-19T22:06:54.826Z,5.07
2019-01-19T22:09:22.344Z,4.99
2019-01-19T22:11:49.892Z,4.94
2019-01-19T22:14:17.438Z,4.88
2019-01-19T22:16:44.967Z,4.91
2019-01-19T22:19:12.476Z,5.01
2019-01-19T22:21:40.092Z,4.99
2019-01-19T22:24:07.650Z,4.75
2019-01-19T22:26:35.821Z,4.80
2019-01-19T22:29:03.790Z,4.71
2019-01-19T22:31:31.443Z,4.70
2019-01-19T22:33:59.166Z,4.51
2019-01-19T22:36:26.729Z,4.42
2019-01-19T22:38:54.339Z,4.47
2019-01-19T22:41:21.955Z,4.29
2019-01-19T22:43:49.572Z,4.32
2019-01-19T22:46:17.349Z,4.29
2019-01-19T22:48:44.984Z,4.30
2019-01-19T22:51:12.742Z,4.29
2019-01-19T22:53:40.395Z,4.25
2019-01-19T22:56:07.947Z,4.33
2019-01-19T22:58:35.671Z,4.32
2019-01-19T23:01:43.597Z,4.28
2019-01-19T23:04:12.144Z,4.35
2019-01-19T23:06:39.855Z,4.26
2019-01-19T23:09:14.277Z,4.20
2019-01-19T23:11:42.525Z,4.21
2019-01-19T23:14:11.415Z,4.30
2019-01-19T23:16:39.744Z,4.30
2019-01-19T23:19:07.488Z,4.25
2019-01-19T23:21:35.056Z,4.24
2019-01-19T23:24:02.670Z,4.24
2019-01-19T23:26:30.580Z,4.29
2019-01-19T23:28:58.054Z,4.36
2019-01-19T23:31:26.095Z,4.28
2019-01-19T23:33:53.635Z,4.37
2019-01-19T23:36:21.224Z,4.48
2019-01-19T23:38:48.767Z,4.53
2019-01-19T23:41:16.213Z,4.43
2019-01-19T23:43:43.732Z,4.27
2019-01-19T23:46:11.301Z,4.19
2019-01-19T23:48:38.791Z,4.06
2019-01-19T23:51:06.427Z,4.15
2019-01-19T23:53:34.223Z,4.12
2019-01-19T23:56:01.753Z,3.97
2019-01-19T23:58:29.191Z,3.97
